Time;durP1;ratioP1;P1;durP2;ratioP2;P2;SDS_P1;SDS_P2;PMS_P1;PMS_P2;Temp;Humidity;BMP_temperature;BMP_pressure;BME280_temperature;BME280_humidity;BME280_pressure;Samples;Min_cycle;Max_cycle;Signal;HPM_P1;HPM_P2
2023/02/05 00:02:12;;;;;;;1999.90;999.90;;;7.90;99.90;;;;;;5037401;28;20176;-68
2023/02/05 00:04:38;;;;;;;1999.90;999.90;;;7.90;99.90;;;;;;5037411;28;20658;-68
2023/02/05 00:07:04;;;;;;;1999.90;999.90;;;7.90;99.90;;;;;;5037489;28;20208;-68
2023/02/05 00:09:30;;;;;;;1999.90;999.90;;;7.80;99.90;;;;;;5037036;28;20440;-68
2023/02/05 00:11:57;;;;;;;1999.90;999.90;;;7.80;99.90;;;;;;5037353;28;20515;-68
2023/02/05 00:14:23;;;;;;;1999.90;999.90;;;7.80;99.90;;;;;;5036720;28;20458;-68
2023/02/05 00:16:51;;;;;;;1999.90;999.90;;;7.80;99.90;;;;;;5036789;28;20561;-68
2023/02/05 00:19:16;;;;;;;1999.90;999.90;;;7.70;99.90;;;;;;5037180;28;20458;-68
2023/02/05 00:21:43;;;;;;;1999.90;999.90;;;7.80;99.90;;;;;;5036865;28;20473;-68
2023/02/05 00:24:09;;;;;;;1999.90;999.90;;;7.80;99.90;;;;;;5034294;28;20176;-68
2023/02/05 00:26:35;;;;;;;1999.90;999.90;;;7.80;99.90;;;;;;5032997;28;20461;-68
2023/02/05 00:29:01;;;;;;;1999.90;999.90;;;7.80;99.90;;;;;;5032708;28;20452;-68
2023/02/05 00:31:27;;;;;;;1999.90;999.90;;;7.90;99.90;;;;;;5033119;28;20431;-68
2023/02/05 00:33:52;;;;;;;1999.90;999.90;;;7.90;99.90;;;;;;5033487;28;20771;-68
2023/02/05 00:36:19;;;;;;;1999.90;999.90;;;7.90;99.90;;;;;;5033094;28;20164;-68
2023/02/05 00:38:48;;;;;;;1999.90;999.90;;;7.90;99.90;;;;;;5033219;28;20766;-68
2023/02/05 00:41:15;;;;;;;1999.90;999.90;;;7.80;99.90;;;;;;5033108;28;20406;-68
2023/02/05 00:43:41;;;;;;;1999.90;999.90;;;7.80;99.90;;;;;;5033145;28;20840;-68
2023/02/05 00:46:07;;;;;;;1999.90;999.90;;;7.70;99.90;;;;;;5033331;28;20442;-68
2023/02/05 00:48:33;;;;;;;1999.90;999.90;;;7.80;99.90;;;;;;5032782;28;20461;-68
2023/02/05 00:50:58;;;;;;;1999.90;999.90;;;7.70;99.90;;;;;;5032894;28;20831;-68
2023/02/05 00:53:25;;;;;;;1999.90;999.90;;;7.60;99.90;;;;;;5032834;28;20184;-68
2023/02/05 00:55:51;;;;;;;1999.90;999.90;;;7.60;99.90;;;;;;5032646;28;20164;-68
2023/02/05 00:58:17;;;;;;;1999.90;999.90;;;7.50;99.90;;;;;;5032763;28;20407;-68
2023/02/05 01:00:43;;;;;;;1999.90;999.90;;;7.40;99.90;;;;;;5032862;28;20421;-68
2023/02/05 01:03:10;;;;;;;1999.90;999.90;;;7.40;99.90;;;;;;5033016;28;20908;-68
2023/02/05 01:05:37;;;;;;;1999.90;999.90;;;8.00;99.90;;;;;;5032604;28;20940;-68
2023/02/05 01:08:05;;;;;;;1999.90;999.90;;;7.50;99.90;;;;;;5032911;28;20839;-68
2023/02/05 01:10:31;;;;;;;1999.90;999.90;;;7.60;99.90;;;;;;5032828;28;20764;-68
2023/02/05 01:12:57;;;;;;;1999.90;999.90;;;7.60;99.90;;;;;;5033033;28;20455;-68
2023/02/05 01:15:23;;;;;;;1999.90;999.90;;;7.60;99.90;;;;;;5033236;28;20407;-68
2023/02/05 01:17:48;;;;;;;1999.90;999.90;;;7.70;99.90;;;;;;5032777;28;20169;-68
2023/02/05 01:20:14;;;;;;;1999.90;999.90;;;7.70;99.90;;;;;;5032459;28;20192;-68
2023/02/05 01:22:41;;;;;;;1999.90;999.90;;;7.70;99.90;;;;;;5033253;28;20573;-68
2023/02/05 01:25:07;;;;;;;1999.90;999.90;;;7.60;99.90;;;;;;5032773;28;20429;-68
2023/02/05 01:27:34;;;;;;;1999.90;999.90;;;7.60;99.90;;;;;;5032871;28;20411;-68
2023/02/05 01:29:59;;;;;;;1999.90;999.90;;;7.60;99.90;;;;;;5032603;28;20837;-68
2023/02/05 01:32:27;;;;;;;1999.90;999.90;;;7.60;99.90;;;;;;5032746;28;20495;-68
2023/02/05 01:34:52;;;;;;;1999.90;999.90;;;7.60;99.90;;;;;;5032423;28;20197;-68
2023/02/05 01:37:18;;;;;;;1999.90;999.90;;;7.60;99.90;;;;;;5032438;28;20457;-68
2023/02/05 01:39:44;;;;;;;1999.90;999.90;;;7.60;99.90;;;;;;5032253;28;20188;-68
2023/02/05 01:42:20;;;;;;;1999.90;999.90;;;7.60;99.90;;;;;;5034809;28;20573;-68
2023/02/05 01:45:20;;;;;;;1999.90;999.90;;;7.60;99.90;;;;;;5037426;28;20216;-68
2023/02/05 01:47:56;;;;;;;1999.90;999.90;;;7.60;99.90;;;;;;5036412;28;20460;-68
2023/02/05 01:50:35;;;;;;;1999.90;999.90;;;7.60;99.90;;;;;;5036364;28;20467;-68
2023/02/05 01:53:04;;;;;;;1999.90;999.90;;;7.60;99.90;;;;;;5037249;28;20513;-68
2023/02/05 01:55:31;;;;;;;1999.90;999.90;;;7.60;99.90;;;;;;5037309;28;20408;-68
2023/02/05 01:57:59;;;;;;;1999.90;999.90;;;7.60;99.90;;;;;;5037083;28;20749;-68
2023/02/05 02:00:25;;;;;;;1999.90;999.90;;;7.60;99.90;;;;;;5036677;28;20906;-68
2023/02/05 02:02:51;;;;;;;1999.90;999.90;;;7.60;99.90;;;;;;5036846;28;20915;-68
2023/02/05 02:05:18;;;;;;;1999.90;999.90;;;7.50;99.90;;;;;;5036565;28;20474;-68
2023/02/05 02:07:44;;;;;;;1999.90;999.90;;;7.50;99.90;;;;;;5036249;28;20423;-68
2023/02/05 02:10:14;;;;;;;1999.90;999.90;;;7.50;99.90;;;;;;5036429;28;20414;-68
2023/02/05 02:12:41;;;;;;;1999.90;999.90;;;7.50;99.90;;;;;;5036297;28;20411;-68
2023/02/05 02:15:16;;;;;;;1999.90;999.90;;;7.50;99.90;;;;;;5035936;28;20426;-68
2023/02/05 02:17:45;;;;;;;1999.90;999.90;;;7.40;99.90;;;;;;5035684;28;20391;-68
2023/02/05 02:20:15;;;;;;;1999.90;999.90;;;7.40;99.90;;;;;;5035462;28;20427;-68
2023/02/05 02:22:52;;;;;;;1999.90;999.90;;;7.40;99.90;;;;;;5035863;28;20405;-68
2023/02/05 02:25:42;;;;;;;1999.90;999.90;;;7.30;99.90;;;;;;5035485;28;20474;-68
2023/02/05 02:28:27;;;;;;;1999.90;999.90;;;7.30;99.90;;;;;;5035188;28;20494;-67
2023/02/05 02:31:09;;;;;;;1999.90;999.90;;;7.30;99.90;;;;;;5034712;28;20399;-68
2023/02/05 02:33:40;;;;;;;1999.90;999.90;;;7.20;99.90;;;;;;5034809;28;20500;-67
2023/02/05 02:36:43;;;;;;;1999.90;999.90;;;7.20;99.90;;;;;;5034636;28;20834;-68
2023/02/05 02:39:15;;;;;;;1999.90;999.90;;;7.20;99.90;;;;;;4980037;28;20449;-68
2023/02/05 02:42:01;;;;;;;1999.90;999.90;;;7.20;99.90;;;;;;5034811;28;20395;-67
2023/02/05 02:44:35;;;;;;;1999.90;999.90;;;7.30;99.90;;;;;;5035638;28;20407;-68
2023/02/05 02:47:08;;;;;;;1999.90;999.90;;;7.30;99.90;;;;;;5035971;28;20443;-68
2023/02/05 02:49:40;;;;;;;1999.90;999.90;;;7.40;99.90;;;;;;5035640;28;20522;-68
2023/02/05 02:52:08;;;;;;;1999.90;999.90;;;7.50;99.90;;;;;;5035326;28;20414;-68
2023/02/05 02:54:37;;;;;;;1999.90;999.90;;;7.50;99.90;;;;;;5035696;28;20465;-68
2023/02/05 02:57:07;;;;;;;1999.90;999.90;;;7.60;99.90;;;;;;5035446;28;20407;-68
2023/02/05 02:59:36;;;;;;;1999.90;999.90;;;7.60;99.90;;;;;;5040294;28;20511;-68
2023/02/05 03:02:05;;;;;;;1999.90;999.90;;;7.60;99.90;;;;;;5043560;28;20403;-68
2023/02/05 03:04:37;;;;;;;1999.90;999.90;;;7.70;99.90;;;;;;5044046;28;20418;-68
2023/02/05 03:07:14;;;;;;;1999.90;999.90;;;7.70;99.90;;;;;;5038890;28;20411;-68
2023/02/05 03:10:00;;;;;;;1999.90;999.90;;;7.80;99.90;;;;;;5037831;28;20861;-68
2023/02/05 03:12:26;;;;;;;1999.90;999.90;;;7.80;99.90;;;;;;5037588;28;20905;-68
2023/02/05 03:14:53;;;;;;;1999.90;999.90;;;7.90;99.90;;;;;;5038657;28;20546;-68
2023/02/05 03:17:19;;;;;;;1999.90;999.90;;;7.90;99.90;;;;;;5038886;28;20433;-68
2023/02/05 03:19:47;;;;;;;1999.90;999.90;;;7.90;99.90;;;;;;5037911;28;20768;-68
2023/02/05 03:22:13;;;;;;;1999.90;999.90;;;7.90;99.90;;;;;;5039024;28;20496;-68
2023/02/05 03:24:39;;;;;;;1999.90;999.90;;;8.00;99.90;;;;;;5038932;28;20444;-68
2023/02/05 03:27:05;;;;;;;1999.90;999.90;;;7.90;99.90;;;;;;5038878;28;20414;-68
2023/02/05 03:29:37;;;;;;;1999.90;999.90;;;7.90;99.90;;;;;;5038840;28;20446;-68
2023/02/05 03:32:21;;;;;;;1999.90;999.90;;;7.90;99.90;;;;;;5038090;28;20606;-68
2023/02/05 03:35:08;;;;;;;1999.90;999.90;;;7.80;99.90;;;;;;5038033;28;20463;-68
2023/02/05 03:37:42;;;;;;;1999.90;999.90;;;7.80;99.90;;;;;;5037785;28;20714;-68
2023/02/05 03:40:17;;;;;;;1999.90;999.90;;;7.80;99.90;;;;;;5037541;28;20433;-68
2023/02/05 03:43:16;;;;;;;1999.90;999.90;;;7.80;99.90;;;;;;5037659;28;20413;-68
2023/02/05 03:46:27;;;;;;;1999.90;999.90;;;7.90;99.90;;;;;;5019900;28;20788;-68
2023/02/05 03:48:52;;;;;;;1999.90;999.90;;;7.90;99.90;;;;;;4992073;28;20590;-68
2023/02/05 03:51:36;;;;;;;1999.90;999.90;;;7.90;99.90;;;;;;5037740;28;20427;-68
2023/02/05 03:54:20;;;;;;;1999.90;999.90;;;7.80;99.90;;;;;;5039604;28;20358;-68
2023/02/05 03:57:01;;;;;;;1999.90;999.90;;;7.90;99.90;;;;;;5040931;28;20399;-68
2023/02/05 03:59:28;;;;;;;1999.90;999.90;;;7.80;99.90;;;;;;5042124;28;20814;-68
2023/02/05 04:01:54;;;;;;;1999.90;999.90;;;7.80;99.90;;;;;;5042873;28;20414;-68
2023/02/05 04:04:20;;;;;;;1999.90;999.90;;;7.80;99.90;;;;;;5041343;28;21071;-68
2023/02/05 04:06:48;;;;;;;1999.90;999.90;;;7.80;99.90;;;;;;5042846;28;20411;-68
2023/02/05 04:09:13;;;;;;;1999.90;999.90;;;7.80;99.90;;;;;;5042481;28;20450;-68
2023/02/05 04:11:39;;;;;;;1999.90;999.90;;;7.80;99.90;;;;;;5041974;28;20767;-68
2023/02/05 04:14:05;;;;;;;1999.90;999.90;;;7.80;99.90;;;;;;5041912;28;20204;-68
2023/02/05 04:16:30;;;;;;;1999.90;999.90;;;7.80;99.90;;;;;;5041823;28;20166;-68
2023/02/05 04:18:56;;;;;;;1999.90;999.90;;;7.90;99.90;;;;;;5042890;28;20271;-68
2023/02/05 04:21:21;;;;;;;1999.90;999.90;;;7.90;99.90;;;;;;5042548;28;20179;-68
2023/02/05 04:23:47;;;;;;;1999.90;999.90;;;7.90;99.90;;;;;;5042630;28;20187;-68
2023/02/05 04:26:13;;;;;;;1999.90;999.90;;;7.90;99.90;;;;;;5025783;28;20213;-68
2023/02/05 04:28:38;;;;;;;1999.90;999.90;;;7.90;99.90;;;;;;5042080;28;20209;-68
2023/02/05 04:31:10;;;;;;;1999.90;999.90;;;7.90;99.90;;;;;;5024914;28;20179;-68
2023/02/05 04:33:35;;;;;;;1999.90;999.90;;;7.80;99.90;;;;;;5042934;28;20204;-68
2023/02/05 04:36:01;;;;;;;1999.90;999.90;;;7.80;99.90;;;;;;5041996;28;20484;-68
2023/02/05 04:38:27;;;;;;;1999.90;999.90;;;7.80;99.90;;;;;;5040955;28;20271;-68
2023/02/05 04:40:52;;;;;;;1999.90;999.90;;;7.70;99.90;;;;;;5039860;28;20174;-68
2023/02/05 04:43:18;;;;;;;1999.90;999.90;;;7.70;99.90;;;;;;5039001;28;20180;-68
2023/02/05 04:45:44;;;;;;;1999.90;999.90;;;7.70;99.90;;;;;;5039615;28;20262;-68
2023/02/05 04:48:09;;;;;;;1999.90;999.90;;;7.50;99.90;;;;;;5021475;28;20176;-68
2023/02/05 04:50:37;;;;;;;1999.90;999.90;;;7.50;99.90;;;;;;5038532;28;20168;-68
2023/02/05 04:53:03;;;;;;;1999.90;999.90;;;7.50;99.90;;;;;;5039283;28;20310;-67
2023/02/05 04:55:30;;;;;;;1999.90;999.90;;;7.40;99.90;;;;;;5037674;28;20403;-67
2023/02/05 04:57:56;;;;;;;1999.90;999.90;;;7.40;99.90;;;;;;5032169;28;20876;-67
2023/02/05 05:00:21;;;;;;;1999.90;999.90;;;7.40;99.90;;;;;;5032756;28;20462;-67
2023/02/05 05:02:47;;;;;;;1999.90;999.90;;;7.40;99.90;;;;;;5032601;28;20161;-67
2023/02/05 05:05:12;;;;;;;1999.90;999.90;;;7.30;99.90;;;;;;5032414;28;20207;-67
2023/02/05 05:07:38;;;;;;;1999.90;999.90;;;7.20;99.90;;;;;;5032218;28;20172;-67
2023/02/05 05:10:06;;;;;;;1999.90;999.90;;;7.20;99.90;;;;;;5031975;28;20574;-67
2023/02/05 05:12:32;;;;;;;1999.90;999.90;;;7.20;99.90;;;;;;5031988;28;20415;-67
2023/02/05 05:14:58;;;;;;;1999.90;999.90;;;7.20;99.90;;;;;;5031997;28;20454;-67
2023/02/05 05:17:23;;;;;;;1999.90;999.90;;;7.20;99.90;;;;;;5032137;28;20411;-67
2023/02/05 05:19:49;;;;;;;1999.90;999.90;;;7.20;99.90;;;;;;5031843;28;20195;-67
2023/02/05 05:22:15;;;;;;;1999.90;999.90;;;7.20;99.90;;;;;;5032112;28;20542;-67
2023/02/05 05:24:40;;;;;;;1999.90;999.90;;;7.20;99.90;;;;;;5032302;28;20176;-67
2023/02/05 05:27:06;;;;;;;1999.90;999.90;;;7.30;99.90;;;;;;5032228;28;20202;-67
2023/02/05 05:29:32;;;;;;;1999.90;999.90;;;7.30;99.90;;;;;;5031993;28;20575;-67
2023/02/05 05:31:57;;;;;;;1999.90;999.90;;;7.40;99.90;;;;;;5032275;28;20216;-67
2023/02/05 05:34:23;;;;;;;1999.90;999.90;;;7.40;99.90;;;;;;5031949;28;20247;-67
2023/02/05 05:36:49;;;;;;;1999.90;999.90;;;7.40;99.90;;;;;;5049847;28;20175;-67
2023/02/05 05:44:43;;;;;;;1999.90;999.90;;;7.20;99.90;;;;;;5051912;28;20408;-68
2023/02/05 05:47:08;;;;;;;1999.90;999.90;;;7.20;99.90;;;;;;5051669;28;20410;-67
2023/02/05 05:49:34;;;;;;;1999.90;999.90;;;7.20;99.90;;;;;;5051482;28;20195;-68
2023/02/05 05:52:00;;;;;;;1999.90;999.90;;;7.20;99.90;;;;;;5052902;28;20173;-69
2023/02/05 05:54:25;;;;;;;1999.90;999.90;;;7.20;99.90;;;;;;5056941;28;20574;-67
2023/02/05 05:56:51;;;;;;;1999.90;999.90;;;7.10;99.90;;;;;;5056614;28;20175;-67
2023/02/05 05:59:16;;;;;;;1999.90;999.90;;;7.10;99.90;;;;;;5056575;28;20192;-67
2023/02/05 06:01:42;;;;;;;1999.90;999.90;;;7.20;99.90;;;;;;5059299;28;20168;-67
2023/02/05 06:04:08;;;;;;;1999.90;999.90;;;7.10;99.90;;;;;;5061479;28;20231;-68
2023/02/05 06:06:33;;;;;;;1999.90;999.90;;;7.10;99.90;;;;;;5044265;28;20660;-68
2023/02/05 06:08:59;;;;;;;1999.90;999.90;;;7.10;99.90;;;;;;5056559;28;20194;-69
2023/02/05 06:11:24;;;;;;;1999.90;999.90;;;7.10;99.90;;;;;;5055902;28;20605;-69
2023/02/05 06:13:50;;;;;;;1999.90;999.90;;;7.20;99.90;;;;;;5056178;28;20200;-69
2023/02/05 06:16:15;;;;;;;1999.90;999.90;;;7.20;99.90;;;;;;5057155;28;20172;-67
2023/02/05 06:18:41;;;;;;;1999.90;999.90;;;7.20;99.90;;;;;;5057291;28;20831;-67
2023/02/05 06:21:07;;;;;;;1999.90;999.90;;;7.20;99.90;;;;;;5056256;28;20183;-69
2023/02/05 06:23:33;;;;;;;1999.90;999.90;;;7.10;99.90;;;;;;5056307;28;20176;-70
2023/02/05 06:25:58;;;;;;;1999.90;999.90;;;7.10;99.90;;;;;;5056340;28;20656;-70
2023/02/05 06:28:24;;;;;;;1999.90;999.90;;;7.10;99.90;;;;;;5058320;28;20528;-68
2023/02/05 06:30:50;;;;;;;1999.90;999.90;;;7.20;99.90;;;;;;5061523;28;20676;-69
2023/02/05 06:33:15;;;;;;;1999.90;999.90;;;7.20;99.90;;;;;;5062031;28;20256;-68
2023/02/05 06:35:41;;;;;;;1999.90;999.90;;;7.20;99.90;;;;;;5061291;28;20160;-68
2023/02/05 06:38:07;;;;;;;1999.90;999.90;;;7.30;99.90;;;;;;5061609;28;20642;-68
2023/02/05 06:40:33;;;;;;;1999.90;999.90;;;7.20;99.90;;;;;;5060160;28;20167;-68
2023/02/05 06:42:58;;;;;;;1999.90;999.90;;;7.20;99.90;;;;;;5060254;28;20402;-68
2023/02/05 06:45:24;;;;;;;1999.90;999.90;;;7.20;99.90;;;;;;5060153;28;20608;-68
2023/02/05 06:47:52;;;;;;;1999.90;999.90;;;7.20;99.90;;;;;;5060213;28;20172;-68
2023/02/05 06:50:18;;;;;;;1999.90;999.90;;;7.20;99.90;;;;;;5059950;28;20282;-68
2023/02/05 06:52:44;;;;;;;1999.90;999.90;;;7.20;99.90;;;;;;5061701;28;20406;-68
2023/02/05 06:55:10;;;;;;;1999.90;999.90;;;7.30;99.90;;;;;;5062137;28;20525;-68
2023/02/05 06:57:36;;;;;;;1999.90;999.90;;;7.30;99.90;;;;;;5061879;28;20183;-67
2023/02/05 07:00:02;;;;;;;1999.90;999.90;;;7.30;99.90;;;;;;5060567;28;20194;-68
2023/02/05 07:02:28;;;;;;;1999.90;999.90;;;7.40;99.90;;;;;;5061173;28;20171;-67
2023/02/05 07:04:53;;;;;;;1999.90;999.90;;;7.30;99.90;;;;;;5061227;28;20471;-67
2023/02/05 07:07:19;;;;;;;1999.90;999.90;;;7.30;99.90;;;;;;5060139;28;20176;-67
2023/02/05 07:09:44;;;;;;;1999.90;999.90;;;7.30;99.90;;;;;;5059462;28;20221;-67
2023/02/05 07:12:10;;;;;;;1999.90;999.90;;;7.30;99.90;;;;;;5061168;28;20171;-67
2023/02/05 07:14:37;;;;;;;1999.90;999.90;;;7.30;99.90;;;;;;5061367;28;20206;-67
2023/02/05 07:17:02;;;;;;;1999.90;999.90;;;7.30;99.90;;;;;;5060852;28;20598;-67
2023/02/05 07:19:28;;;;;;;1999.90;999.90;;;7.30;99.90;;;;;;5060447;28;20475;-67
2023/02/05 07:21:54;;;;;;;1999.90;999.90;;;7.30;99.90;;;;;;5060686;28;20606;-68
2023/02/05 07:24:19;;;;;;;1999.90;999.90;;;7.20;99.90;;;;;;5060344;28;20180;-67
2023/02/05 07:26:45;;;;;;;1999.90;999.90;;;7.30;99.90;;;;;;5059010;28;20183;-68
2023/02/05 07:29:10;;;;;;;1999.90;999.90;;;7.30;99.90;;;;;;5059038;28;20225;-68
2023/02/05 07:31:36;;;;;;;1999.90;999.90;;;7.30;99.90;;;;;;5059630;28;20543;-68
2023/02/05 07:34:02;;;;;;;1999.90;999.90;;;7.30;99.90;;;;;;5057840;28;20226;-68
2023/02/05 07:36:28;;;;;;;1999.90;999.90;;;7.30;99.90;;;;;;5056707;28;20171;-68
2023/02/05 07:38:53;;;;;;;1999.90;999.90;;;7.30;99.90;;;;;;5054322;28;20426;-67
2023/02/05 07:41:19;;;;;;;1999.90;999.90;;;7.30;99.90;;;;;;5056546;28;20171;-67
2023/02/05 07:43:44;;;;;;;1999.90;999.90;;;7.30;99.90;;;;;;5055671;28;20267;-68
2023/02/05 07:46:13;;;;;;;1999.90;999.90;;;7.20;99.90;;;;;;5053554;28;20206;-68
2023/02/05 07:48:39;;;;;;;1999.90;999.90;;;7.20;99.90;;;;;;5053358;28;20192;-68
2023/02/05 07:51:05;;;;;;;1999.90;999.90;;;7.20;99.90;;;;;;5053222;28;20560;-68
2023/02/05 07:53:31;;;;;;;1999.90;999.90;;;7.20;99.90;;;;;;5053447;28;20285;-68
2023/02/05 07:56:04;;;;;;;1999.90;999.90;;;7.20;99.90;;;;;;5053235;28;20859;-68
2023/02/05 07:58:29;;;;;;;1999.90;999.90;;;7.20;99.90;;;;;;5053210;28;20193;-68
2023/02/05 08:00:59;;;;;;;1999.90;999.90;;;7.20;99.90;;;;;;5053180;28;20541;-68
2023/02/05 08:03:25;;;;;;;1999.90;999.90;;;7.10;99.90;;;;;;5053295;28;20195;-68
2023/02/05 08:05:50;;;;;;;1999.90;999.90;;;7.10;99.90;;;;;;5053109;28;20895;-68
2023/02/05 08:08:16;;;;;;;1999.90;999.90;;;7.10;99.90;;;;;;5052965;28;20171;-68
2023/02/05 08:10:41;;;;;;;1999.90;999.90;;;7.10;99.90;;;;;;5052817;28;20234;-68
2023/02/05 08:13:07;;;;;;;1999.90;999.90;;;7.00;99.90;;;;;;5052815;28;20195;-68
2023/02/05 08:15:32;;;;;;;1999.90;999.90;;;7.00;99.90;;;;;;5053173;28;20599;-67
2023/02/05 08:17:58;;;;;;;1999.90;999.90;;;7.00;99.90;;;;;;5052952;28;20177;-68
2023/02/05 08:20:23;;;;;;;1999.90;999.90;;;7.00;99.90;;;;;;5052822;28;20270;-68
2023/02/05 08:22:49;;;;;;;1999.90;999.90;;;7.00;99.90;;;;;;5059270;28;20198;-68
2023/02/05 08:25:14;;;;;;;1999.90;999.90;;;7.00;99.90;;;;;;5062204;28;20183;-68
2023/02/05 08:27:41;;;;;;;1999.90;999.90;;;7.00;99.90;;;;;;5064995;28;20248;-68
2023/02/05 08:30:10;;;;;;;1999.90;999.90;;;7.00;99.90;;;;;;5053932;28;20215;-68
2023/02/05 08:32:36;;;;;;;1999.90;999.90;;;7.00;99.90;;;;;;5059137;28;20410;-68
2023/02/05 08:35:01;;;;;;;1999.90;999.90;;;6.90;99.90;;;;;;5053272;28;20804;-70
2023/02/05 08:37:27;;;;;;;1999.90;999.90;;;6.90;99.90;;;;;;5052476;28;20274;-70
2023/02/05 08:39:53;;;;;;;1999.90;999.90;;;6.90;99.90;;;;;;5052337;28;20266;-70
2023/02/05 08:42:19;;;;;;;1999.90;999.90;;;6.80;99.90;;;;;;5052413;28;20180;-69
2023/02/05 08:44:47;;;;;;;1999.90;999.90;;;6.70;99.90;;;;;;5052466;28;20180;-69
2023/02/05 08:47:12;;;;;;;1999.90;999.90;;;6.50;99.90;;;;;;5052343;28;20406;-69
2023/02/05 08:49:38;;;;;;;1999.90;999.90;;;6.40;99.90;;;;;;5052052;28;20441;-69
2023/02/05 08:52:04;;;;;;;1999.90;999.90;;;6.30;99.90;;;;;;5052576;28;20218;-69
2023/02/05 08:54:29;;;;;;;1999.90;999.90;;;6.30;99.90;;;;;;5053186;28;20231;-69
2023/02/05 08:56:55;;;;;;;1999.90;999.90;;;6.20;99.90;;;;;;5053271;28;20204;-69
2023/02/05 08:59:21;;;;;;;1999.90;999.90;;;6.20;99.90;;;;;;5052863;28;20187;-69
2023/02/05 09:01:46;;;;;;;1999.90;999.90;;;6.30;99.90;;;;;;5052799;28;20160;-69
2023/02/05 09:04:14;;;;;;;1999.90;999.90;;;6.30;99.90;;;;;;5052943;28;20414;-69
2023/02/05 09:06:41;;;;;;;1999.90;999.90;;;6.30;99.90;;;;;;5053172;28;20418;-69
2023/02/05 09:09:06;;;;;;;1999.90;999.90;;;6.40;99.90;;;;;;5052973;28;20507;-69
2023/02/05 09:11:32;;;;;;;1999.90;999.90;;;6.40;99.90;;;;;;5053176;28;20819;-69
2023/02/05 09:13:58;;;;;;;1999.90;999.90;;;6.40;99.90;;;;;;5052982;28;20203;-69
2023/02/05 09:16:24;;;;;;;1999.90;999.90;;;6.40;99.90;;;;;;5051683;28;20174;-69
2023/02/05 09:18:52;;;;;;;1999.90;999.90;;;6.30;99.90;;;;;;5052511;28;20422;-69
2023/02/05 09:21:18;;;;;;;1999.90;999.90;;;6.30;99.90;;;;;;5049044;28;20900;-69
2023/02/05 09:23:43;;;;;;;1999.90;999.90;;;6.30;99.90;;;;;;5032657;28;20502;-69
2023/02/05 09:26:09;;;;;;;1999.90;999.90;;;6.40;99.90;;;;;;5032647;28;20169;-69
2023/02/05 09:28:35;;;;;;;1999.90;999.90;;;6.40;99.90;;;;;;5032424;28;20271;-69
2023/02/05 09:31:11;;;;;;;1999.90;999.90;;;6.40;99.90;;;;;;5032218;28;20168;-69
2023/02/05 09:33:36;;;;;;;1999.90;999.90;;;6.50;99.90;;;;;;5032418;28;20972;-69
2023/02/05 09:36:13;;;;;;;1999.90;999.90;;;6.50;99.90;;;;;;5032431;28;20411;-69
2023/02/05 09:38:40;;;;;;;1999.90;999.90;;;6.50;99.90;;;;;;5031972;28;20224;-69
2023/02/05 09:41:11;;;;;;;1999.90;999.90;;;6.50;99.90;;;;;;5031693;28;20409;-69
2023/02/05 09:44:04;;;;;;;1999.90;999.90;;;6.50;99.90;;;;;;5032480;28;20814;-69
2023/02/05 09:46:51;;;;;;;1999.90;999.90;;;6.50;99.90;;;;;;5032230;28;20430;-69
2023/02/05 09:49:42;;;;;;;1999.90;999.90;;;6.50;99.90;;;;;;5031912;28;20764;-69
2023/02/05 09:52:18;;;;;;;1999.90;999.90;;;6.50;99.90;;;;;;5032206;28;20412;-69
2023/02/05 09:54:51;;;;;;;1999.90;999.90;;;6.50;99.90;;;;;;5032414;28;20967;-69
2023/02/05 09:57:28;;;;;;;1999.90;999.90;;;6.50;99.90;;;;;;5032127;28;20435;-69
2023/02/05 09:59:53;;;;;;;1999.90;999.90;;;6.40;99.90;;;;;;5031900;28;20430;-69
2023/02/05 10:02:48;;;;;;;1999.90;999.90;;;6.40;99.90;;;;;;5032724;28;20425;-69
2023/02/05 10:05:15;;;;;;;1999.90;999.90;;;6.30;99.90;;;;;;5022259;28;20184;-69
2023/02/05 10:08:09;;;;;;;1999.90;999.90;;;6.40;99.90;;;;;;5035822;28;20406;-69
2023/02/05 10:10:47;;;;;;;1999.90;999.90;;;6.30;99.90;;;;;;5035918;28;20413;-69
2023/02/05 10:13:30;;;;;;;1999.90;999.90;;;6.30;99.90;;;;;;5035880;28;20451;-69
2023/02/05 10:16:23;;;;;;;1999.90;999.90;;;6.30;99.90;;;;;;5035392;28;20828;-69
2023/02/05 10:18:58;;;;;;;1999.90;999.90;;;6.40;99.90;;;;;;5035659;28;20423;-69
2023/02/05 10:21:59;;;;;;;1999.90;999.90;;;6.40;99.90;;;;;;5035228;28;20966;-69
2023/02/05 10:24:42;;;;;;;1999.90;999.90;;;6.40;99.90;;;;;;5035193;28;20390;-69
2023/02/05 10:27:35;;;;;;;1999.90;999.90;;;6.50;99.90;;;;;;5035157;28;20408;-69
2023/02/05 10:30:15;;;;;;;1999.90;999.90;;;6.50;99.90;;;;;;5034919;28;20538;-69
2023/02/05 10:32:57;;;;;;;1999.90;999.90;;;6.50;99.90;;;;;;5042769;28;20403;-70
2023/02/05 10:35:45;;;;;;;1999.90;999.90;;;6.60;99.90;;;;;;5044771;28;20486;-69
2023/02/05 10:38:28;;;;;;;1999.90;999.90;;;6.40;99.90;;;;;;5044969;28;20398;-69
2023/02/05 10:41:21;;;;;;;1999.90;999.90;;;6.60;99.90;;;;;;5044948;28;20411;-70
2023/02/05 10:43:52;;;;;;;1999.90;999.90;;;6.60;99.90;;;;;;5044364;28;20437;-69
2023/02/05 10:46:18;;;;;;;1999.90;999.90;;;6.70;99.90;;;;;;5044916;28;20426;-69
2023/02/05 10:48:51;;;;;;;1999.90;999.90;;;6.70;99.90;;;;;;5043351;28;20809;-69
2023/02/05 10:51:39;;;;;;;1999.90;999.90;;;6.60;99.90;;;;;;5034811;28;20165;-69
2023/02/05 10:54:13;;;;;;;1999.90;999.90;;;6.50;99.90;;;;;;5021606;28;20463;-69
2023/02/05 10:56:39;;;;;;;1999.90;999.90;;;6.50;99.90;;;;;;5034744;28;20399;-69
2023/02/05 10:59:06;;;;;;;1999.90;999.90;;;6.40;99.90;;;;;;5034683;28;20427;-69
2023/02/05 11:01:37;;;;;;;1999.90;999.90;;;6.50;99.90;;;;;;5034739;28;20777;-69
2023/02/05 11:04:14;;;;;;;1999.90;999.90;;;6.50;99.90;;;;;;5042945;28;20435;-70
2023/02/05 11:06:49;;;;;;;1999.90;999.90;;;6.40;99.90;;;;;;5044524;28;20417;-69
2023/02/05 11:09:23;;;;;;;1999.90;999.90;;;6.40;99.90;;;;;;5046999;28;20491;-69
2023/02/05 11:11:54;;;;;;;1999.90;999.90;;;6.50;99.90;;;;;;5058368;28;20419;-69
2023/02/05 11:14:27;;;;;;;1999.90;999.90;;;6.50;99.90;;;;;;5057875;28;20453;-69
2023/02/05 11:16:53;;;;;;;1999.90;999.90;;;6.60;99.90;;;;;;5058036;28;20402;-69
2023/02/05 11:19:21;;;;;;;1999.90;999.90;;;6.50;99.90;;;;;;5058463;28;20433;-69
2023/02/05 11:21:58;;;;;;;1999.90;999.90;;;6.50;99.90;;;;;;5058137;28;20171;-70
2023/02/05 11:24:26;;;;;;;1999.90;999.90;;;6.50;99.90;;;;;;5068773;28;20433;-70
2023/02/05 11:27:14;;;;;;;1999.90;999.90;;;6.50;99.90;;;;;;5064450;28;20417;-70
2023/02/05 11:29:39;;;;;;;1999.90;999.90;;;6.60;99.90;;;;;;5058950;28;20865;-69
2023/02/05 11:32:21;;;;;;;1999.90;999.90;;;6.60;99.90;;;;;;5059404;28;20450;-69
2023/02/05 11:34:47;;;;;;;1999.90;999.90;;;6.60;99.90;;;;;;5055066;28;20191;-70
2023/02/05 11:37:16;;;;;;;1999.90;999.90;;;6.70;99.90;;;;;;5062951;28;20409;-68
2023/02/05 11:39:44;;;;;;;1999.90;999.90;;;6.70;99.90;;;;;;5048684;28;20430;-68
2023/02/05 11:42:23;;;;;;;1999.90;999.90;;;6.60;99.90;;;;;;5040955;28;20777;-68
2023/02/05 11:44:53;;;;;;;1999.90;999.90;;;6.60;99.90;;;;;;5043077;28;20449;-68
2023/02/05 11:47:25;;;;;;;1999.90;999.90;;;6.60;99.90;;;;;;5039823;28;20419;-69
2023/02/05 11:49:52;;;;;;;1999.90;999.90;;;6.60;99.90;;;;;;5060606;28;20919;-70
2023/02/05 11:52:26;;;;;;;1999.90;999.90;;;6.70;99.90;;;;;;5054983;28;20433;-70
2023/02/05 11:54:52;;;;;;;1999.90;999.90;;;6.70;99.90;;;;;;5052714;28;20510;-70
2023/02/05 11:57:20;;;;;;;1999.90;999.90;;;6.70;99.90;;;;;;5046184;28;20501;-69
2023/02/05 12:00:18;;;;;;;1999.90;999.90;;;6.70;99.90;;;;;;5055305;28;20903;-70
2023/02/05 12:02:48;;;;;;;1999.90;999.90;;;6.70;99.90;;;;;;5032600;28;20403;-70
2023/02/05 12:05:20;;;;;;;1999.90;999.90;;;6.80;99.90;;;;;;5033369;28;20414;-70
2023/02/05 12:07:54;;;;;;;1999.90;999.90;;;6.80;99.90;;;;;;5054598;28;20791;-70
2023/02/05 12:10:37;;;;;;;1999.90;999.90;;;6.90;99.90;;;;;;5032179;28;20430;-70
2023/02/05 12:13:17;;;;;;;1999.90;999.90;;;6.90;99.90;;;;;;5033489;28;20395;-70
2023/02/05 12:16:05;;;;;;;1999.90;999.90;;;6.90;99.90;;;;;;5033217;28;20383;-69
2023/02/05 12:18:42;;;;;;;1999.90;999.90;;;6.80;99.90;;;;;;5032544;28;20419;-70
2023/02/05 12:21:41;;;;;;;1999.90;999.90;;;6.80;99.90;;;;;;5035171;28;20383;-70
2023/02/05 12:24:28;;;;;;;1999.90;999.90;;;6.80;99.90;;;;;;5055233;28;20497;-70
2023/02/05 12:27:03;;;;;;;1999.90;999.90;;;6.70;99.90;;;;;;5042845;28;20399;-70
2023/02/05 12:29:34;;;;;;;1999.90;999.90;;;6.70;99.90;;;;;;5040202;28;20533;-70